Map

Track Data

SID SEASON NUMBER BASIN SUBBASIN NAME ISO_TIME NATURE LAT LON WMO_WIND WMO_PRES WMO_AGENCY TRACK_TYPE DIST2LAND LANDFALL IFLAG USA_AGENCY USA_ATCF_ID USA_LAT USA_LON USA_RECORD USA_STATUS USA_WIND USA_PRES USA_SSHS USA_R34_NE USA_R34_SE USA_R34_SW USA_R34_NW USA_R50_NE USA_R50_SE USA_R50_SW USA_R50_NW USA_R64_NE USA_R64_SE USA_R64_SW USA_R64_NW USA_POCI USA_ROCI USA_RMW USA_EYE TOKYO_LAT TOKYO_LON TOKYO_GRADE TOKYO_WIND TOKYO_PRES TOKYO_R50_DIR TOKYO_R50_LONG TOKYO_R50_SHORT TOKYO_R30_DIR TOKYO_R30_LONG TOKYO_R30_SHORT TOKYO_LAND CMA_LAT CMA_LON CMA_CAT CMA_WIND CMA_PRES HKO_LAT HKO_LON HKO_CAT HKO_WIND HKO_PRES NEWDELHI_LAT NEWDELHI_LON NEWDELHI_GRADE NEWDELHI_WIND NEWDELHI_PRES NEWDELHI_CI NEWDELHI_DP NEWDELHI_POCI REUNION_LAT REUNION_LON REUNION_TYPE REUNION_WIND REUNION_PRES REUNION_TNUM REUNION_CI REUNION_RMW REUNION_R34_NE REUNION_R34_SE REUNION_R34_SW REUNION_R34_NW REUNION_R50_NE REUNION_R50_SE REUNION_R50_SW REUNION_R50_NW REUNION_R64_NE REUNION_R64_SE REUNION_R64_SW REUNION_R64_NW BOM_LAT BOM_LON BOM_TYPE BOM_WIND BOM_PRES BOM_TNUM BOM_CI BOM_RMW BOM_R34_NE BOM_R34_SE BOM_R34_SW BOM_R34_NW BOM_R50_NE BOM_R50_SE BOM_R50_SW BOM_R50_NW BOM_R64_NE BOM_R64_SE BOM_R64_SW BOM_R64_NW BOM_ROCI BOM_POCI BOM_EYE BOM_POS_METHOD BOM_PRES_METHOD NADI_LAT NADI_LON NADI_CAT NADI_WIND NADI_PRES WELLINGTON_LAT WELLINGTON_LON WELLINGTON_WIND WELLINGTON_PRES DS824_LAT DS824_LON DS824_STAGE DS824_WIND DS824_PRES TD9636_LAT TD9636_LON TD9636_STAGE TD9636_WIND TD9636_PRES TD9635_LAT TD9635_LON TD9635_WIND TD9635_PRES TD9635_ROCI NEUMANN_LAT NEUMANN_LON NEUMANN_CLASS NEUMANN_WIND NEUMANN_PRES MLC_LAT MLC_LON MLC_CLASS MLC_WIND MLC_PRES USA_GUST BOM_GUST BOM_GUST_PER REUNION_GUST REUNION_GUST_PER USA_SEAHGT USA_SEARAD_NE USA_SEARAD_SE USA_SEARAD_SW USA_SEARAD_NW STORM_SPEED STORM_DIR
1978263N16267 1978 95 EP MM OLIVIA 1978-09-20 00:00:00 TS 15.8800 -93.0000 30 hurdat_epa main 0 0 O________OO___ hurdat_epa EP151978 15.7000 -93.0000 TD 30 -1 16.0000 -93.0000 TC 30 16.0000 -93.0000 1 30 13 227
1978263N16267 1978 95 EP MM OLIVIA 1978-09-20 03:00:00 TS 15.4243 -93.5084 main 30 30 P________PP___ EP151978 15.3375 -93.4803 TD 32 -1 15.4575 -93.4805 TC 32 15.5316 -93.6202 1 31 13 229
1978263N16267 1978 95 EP MM OLIVIA 1978-09-20 06:00:00 TS 15.0219 -94.0382 35 hurdat_epa main 100 100 O________OP___ hurdat_epa EP151978 15.0000 -94.0000 TS 35 0 15.0000 -94.0000 TC 35 15.1096 -94.1909 1 32 13 236
1978263N16267 1978 95 EP MM OLIVIA 1978-09-20 09:00:00 TS 14.7277 -94.5812 main 159 159 P________PP___ EP151978 14.7252 -94.5600 TS 35 0 14.7027 -94.5599 TC 35 14.7827 -94.6660 1 33 10 246
1978263N16267 1978 95 EP MM OLIVIA 1978-09-20 12:00:00 TS 14.6000 -95.0000 35 hurdat_epa main 162 144 O________OO___ hurdat_epa EP151978 14.6000 -95.0000 TS 35 0 14.6000 -95.0000 TC 35 14.6000 -95.0000 2 35 6 267
1978263N16267 1978 95 EP MM OLIVIA 1978-09-20 15:00:00 TS 14.6936 -95.1788 main 144 124 P________PP___ EP151978 14.7198 -95.1823 TS 45 0 14.7198 -95.1823 TC 45 14.5887 -95.1646 2 40 3 323
1978263N16267 1978 95 EP MM OLIVIA 1978-09-20 18:00:00 TS 14.8579 -95.1998 55 hurdat_epa main 124 124 O________OP___ hurdat_epa EP151978 14.9000 -95.2000 TS 55 0 14.9000 -95.2000 TC 55 14.6893 -95.1990 2 45 2 0
1978263N16267 1978 95 EP MM OLIVIA 1978-09-20 21:00:00 TS 14.9140 -95.1638 main 124 124 P________PP___ EP151978 14.9375 -95.1650 TS 55 0 14.9375 -95.1650 TC 55 14.8202 -95.1589 2 50 1 66
1978263N16267 1978 95 EP MM OLIVIA 1978-09-21 00:00:00 TS 14.9000 -95.1000 55 hurdat_epa main 127 127 O________OO___ hurdat_epa EP151978 14.9000 -95.1000 TS 55 0 14.9000 -95.1000 TC 55 14.9000 -95.1000 2 55 1 143
1978263N16267 1978 95 EP MM OLIVIA 1978-09-21 03:00:00 TS 14.8245 -95.0979 main 138 138 P________PP___ EP151978 14.8300 -95.0925 TS 55 0 14.8300 -95.0925 TC 55 14.8025 -95.1194 2 55 2 0
1978263N16267 1978 95 EP MM OLIVIA 1978-09-21 06:00:00 TS 14.6890 -95.1060 55 hurdat_epa main 148 148 O________OP___ hurdat_epa EP151978 14.7000 -95.1000 TS 55 0 14.7000 -95.1000 TC 55 14.6450 -95.1301 2 55 3 0
1978263N16267 1978 95 EP MM OLIVIA 1978-09-21 09:00:00 TS 14.5050 -95.1111 main 169 169 P________PP___ EP151978 14.5150 -95.1075 TS 55 0 14.5150 -95.1075 TC 55 14.4650 -95.1257 2 55 4 177
1978263N16267 1978 95 EP MM OLIVIA 1978-09-21 12:00:00 TS 14.3000 -95.1000 55 hurdat_epa main 190 190 O________OO___ hurdat_epa EP151978 14.3000 -95.1000 TS 55 0 14.3000 -95.1000 TC 55 14.3000 -95.1000 2 55 4 173
1978263N16267 1978 95 EP MM OLIVIA 1978-09-21 15:00:00 TS 14.0785 -95.0588 main 211 211 P________PP___ EP151978 14.0625 -95.0650 TS 57 0 14.0625 -95.0650 TC 57 14.1425 -95.0343 2 57 4 164
1978263N16267 1978 95 EP MM OLIVIA 1978-09-21 18:00:00 TS 13.9230 -94.9900 60 hurdat_epa main 236 236 O________OP___ hurdat_epa EP151978 13.9000 -95.0000 TS 60 0 13.9000 -95.0000 TC 60 14.0151 -94.9499 2 60 2 130
1978263N16267 1978 95 EP MM OLIVIA 1978-09-21 21:00:00 TS 13.9270 -94.8752 main 239 232 P________PP___ EP151978 13.9200 -94.8776 TS 62 0 13.9200 -94.8776 TC 62 13.9550 -94.8656 2 62 2 68
1978263N16267 1978 95 EP MM OLIVIA 1978-09-22 00:00:00 TS 14.0000 -94.8000 65 hurdat_epa main 232 229 O________OO___ hurdat_epa EP151978 14.0000 -94.8000 HU 65 1 14.0000 -94.8000 TC 65 14.0000 -94.8000 4 65 0 0
1978263N16267 1978 95 EP MM OLIVIA 1978-09-22 03:00:00 TS 13.9716 -94.8821 main 229 215 P________PP___ EP151978 13.9175 -94.9000 HU 65 1 13.9175 -94.9000 TC 65 14.1881 -94.8106 4 65 2 300
1978263N16267 1978 95 EP MM OLIVIA 1978-09-22 06:00:00 TS 14.0960 -94.9674 65 hurdat_epa main 215 165 O________OP___ hurdat_epa EP151978 14.0000 -95.0000 HU 65 1 14.0000 -95.0000 TC 65 14.4799 -94.8369 4 65 6 356
1978263N16267 1978 95 EP MM OLIVIA 1978-09-22 09:00:00 TS 14.6043 -94.9310 main 165 110 P________PP___ EP151978 14.5475 -94.9526 HU 65 1 14.5475 -94.9526 TC 65 14.8318 -94.8448 4 65 11 8
1978263N16267 1978 95 EP MM OLIVIA 1978-09-22 12:00:00 TS 15.2000 -94.8000 65 hurdat_epa main 110 64 O________OO___ hurdat_epa EP151978 15.2000 -94.8000 HU 65 1 15.2000 -94.8000 TC 65 15.2000 -94.8000 4 65 10 19
1978263N16267 1978 95 EP MM OLIVIA 1978-09-22 15:00:00 TS 15.5859 -94.5815 main 64 24 P________PP___ EP151978 15.5951 -94.5576 HU 57 0 15.5951 -94.5576 TC 57 15.5492 -94.6772 4 56 8 33
1978263N16267 1978 95 EP MM OLIVIA 1978-09-22 18:00:00 TS 15.8956 -94.3377 50 hurdat_epa main 22 0 O________OP___ hurdat_epa EP151978 15.9000 -94.3000 TS 50 0 15.9000 -94.3000 TC 50 15.8778 -94.4886 4 47 7 34
1978263N16267 1978 95 EP MM OLIVIA 1978-09-22 21:00:00 TS 16.1965 -94.1491 main 0 0 P________PP___ EP151978 16.1975 -94.1225 TS 40 0 16.1975 -94.1225 TC 40 16.1925 -94.2556 4 38 7 28
1978263N16267 1978 95 EP MM OLIVIA 1978-09-23 00:00:00 TS 16.5000 -94.0000 30 hurdat_epa main 0 O________OO___ hurdat_epa EP151978 16.5000 -94.0000 TD 30 -1 16.5000 -94.0000 TC 30 16.5000 -94.0000 1 30 7 25

About IBTrACS Database

This database is a web-friendly format of International Best Track Archive for Climate Stewardship (IBTrACS), a global best track data archive curated by NOAA dating back to 1842.

Updated: 2021-10-21